Time;durP1;ratioP1;P1;durP2;ratioP2;P2;SDS_P1;SDS_P2;PMS_P1;PMS_P2;Temp;Humidity;BMP_temperature;BMP_pressure;BME280_temperature;BME280_humidity;BME280_pressure;Samples;Min_cycle;Max_cycle;Signal;HPM_P1;HPM_P2
2022/05/20 06:01:30;;;;;;;3.10;2.67;;;20.80;64.20;;;;;;5043683;28;20260;-90
2022/05/20 06:14:23;;;;;;;2.85;2.65;;;21.10;64.10;;;;;;5008802;28;20255;-91
2022/05/20 06:17:25;;;;;;;2.50;2.30;;;21.10;62.70;;;;;;4990230;28;20207;-92
2022/05/20 06:41:23;;;;;;;3.15;2.47;;;22.10;56.70;;;;;;4994080;28;20258;-90
2022/05/20 06:43:50;;;;;;;5.65;2.50;;;22.10;55.20;;;;;;4996200;28;20663;-90
2022/05/20 06:46:28;;;;;;;3.33;2.40;;;22.10;54.90;;;;;;4984129;28;20235;-90
2022/05/20 06:49:01;;;;;;;5.25;2.67;;;22.20;54.60;;;;;;4991174;28;20199;-89
2022/05/20 06:55:22;;;;;;;2.90;2.22;;;22.20;52.50;;;;;;4976132;28;20247;-89
2022/05/20 06:58:15;;;;;;;3.70;2.35;;;22.20;50.30;;;;;;4982385;28;20255;-89
2022/05/20 07:00:58;;;;;;;3.80;2.40;;;22.40;51.40;;;;;;4994550;28;20223;-88
2022/05/20 07:03:26;;;;;;;5.07;2.30;;;22.50;51.20;;;;;;4994246;28;20208;-89
2022/05/20 07:06:00;;;;;;;2.60;2.40;;;22.60;51.80;;;;;;5002913;28;20570;-92
2022/05/20 07:08:27;;;;;;;2.85;2.53;;;22.60;49.40;;;;;;5031075;28;20202;-93
2022/05/20 07:11:22;;;;;;;4.80;2.47;;;22.80;50.30;;;;;;5031766;28;20206;-91
2022/05/20 07:13:54;;;;;;;5.65;2.75;;;22.80;48.80;;;;;;5032470;28;20226;-90
2022/05/20 07:19:16;;;;;;;4.28;2.40;;;23.00;48.80;;;;;;5025539;28;20234;-92
2022/05/20 07:25:21;;;;;;;2.55;2.35;;;23.30;48.30;;;;;;5018506;28;20197;-91
2022/05/20 07:28:08;;;;;;;2.78;2.50;;;23.40;45.50;;;;;;4993450;28;20299;-90
2022/05/20 07:30:40;;;;;;;3.80;2.30;;;23.40;44.60;;;;;;4979738;28;20203;-91
2022/05/20 07:33:32;;;;;;;4.65;2.35;;;23.50;45.20;;;;;;4991910;28;20692;-91
2022/05/20 07:39:09;;;;;;;2.97;2.75;;;23.60;42.80;;;;;;4975696;28;20263;-91
2022/05/20 07:48:16;;;;;;;3.03;2.30;;;23.80;36.30;;;;;;5007340;28;20699;-93
2022/05/20 07:50:47;;;;;;;6.43;2.80;;;23.90;37.90;;;;;;4993934;28;20286;-91
2022/05/20 07:53:29;;;;;;;3.88;2.55;;;24.00;37.70;;;;;;5017931;28;20223;-92
2022/05/20 07:56:11;;;;;;;7.40;2.63;;;24.10;35.50;;;;;;5011983;28;20682;-88
2022/05/20 07:58:46;;;;;;;5.15;2.78;;;24.20;35.60;;;;;;5031999;28;20226;-89
2022/05/20 08:01:13;;;;;;;6.82;2.50;;;24.50;35.80;;;;;;5036360;28;20226;-90
2022/05/20 08:07:04;;;;;;;3.22;2.58;;;24.80;30.80;;;;;;5036915;28;20224;-88
2022/05/20 08:09:40;;;;;;;3.78;2.67;;;24.90;30.90;;;;;;5039057;28;20198;-86
2022/05/20 08:12:58;;;;;;;7.82;2.80;;;25.10;31.60;;;;;;5041114;28;20510;-89
2022/05/20 08:15:36;;;;;;;5.05;2.53;;;25.10;30.00;;;;;;5036611;28;20205;-86
2022/05/20 08:18:03;;;;;;;3.67;2.50;;;25.30;31.60;;;;;;5042364;28;20202;-86
2022/05/20 08:20:31;;;;;;;4.47;2.33;;;25.20;30.00;;;;;;5039826;28;20230;-87
2022/05/20 08:23:10;;;;;;;3.67;2.45;;;25.50;31.10;;;;;;5037530;28;20252;-87
2022/05/20 08:25:40;;;;;;;5.70;2.90;;;25.80;26.60;;;;;;5037369;28;20194;-87
2022/05/20 08:28:21;;;;;;;2.90;2.60;;;26.20;25.80;;;;;;5037946;28;20221;-87
2022/05/20 08:30:50;;;;;;;5.63;2.70;;;26.50;24.40;;;;;;5033669;28;20213;-84
2022/05/20 08:33:34;;;;;;;6.13;2.85;;;27.00;23.50;;;;;;5043687;28;20277;-85
2022/05/20 08:36:04;;;;;;;3.45;2.70;;;27.70;22.90;;;;;;5034908;28;20213;-86
2022/05/20 08:38:47;;;;;;;4.22;2.63;;;28.60;21.70;;;;;;5043946;28;20202;-85
2022/05/20 08:41:20;;;;;;;3.90;2.90;;;29.20;17.90;;;;;;5043656;28;20689;-85
2022/05/20 08:43:48;;;;;;;3.08;2.78;;;30.20;17.60;;;;;;5042997;28;20198;-85
2022/05/20 08:46:20;;;;;;;5.65;3.05;;;31.80;16.00;;;;;;5036315;28;20778;-86
2022/05/20 08:48:58;;;;;;;4.88;3.00;;;33.30;13.60;;;;;;5035678;28;20198;-85
2022/05/20 08:54:47;;;;;;;3.95;3.20;;;36.60;9.20;;;;;;5035784;28;20216;-86
2022/05/20 08:57:34;;;;;;;5.32;3.47;;;37.60;7.90;;;;;;5036197;28;20684;-86
2022/05/20 09:00:06;;;;;;;4.43;4.03;;;37.50;6.60;;;;;;5035966;28;20207;-86
2022/05/20 09:02:47;;;;;;;4.38;3.38;;;37.80;4.80;;;;;;5035644;28;20198;-86
2022/05/20 09:05:20;;;;;;;5.90;4.10;;;38.10;6.20;;;;;;5035828;28;20198;-86
2022/05/20 09:08:01;;;;;;;6.43;4.40;;;38.40;6.00;;;;;;5033263;28;20190;-86
2022/05/20 09:10:38;;;;;;;5.68;4.50;;;38.80;5.80;;;;;;5042731;28;20252;-86
2022/05/20 09:13:18;;;;;;;5.05;4.55;;;38.90;5.30;;;;;;5035501;28;20205;-86
2022/05/20 09:15:57;;;;;;;5.15;4.65;;;39.30;4.60;;;;;;5022916;28;20213;-86
2022/05/20 09:18:36;;;;;;;5.22;4.82;;;39.10;3.80;;;;;;5012896;28;20252;-86
2022/05/20 09:21:35;;;;;;;5.50;5.10;;;39.20;3.40;;;;;;5031995;28;20289;-86
2022/05/20 09:24:23;;;;;;;5.20;4.80;;;39.90;2.00;;;;;;5035974;28;20202;-87
2022/05/20 09:27:05;;;;;;;5.57;5.13;;;40.00;3.20;;;;;;5029620;28;20208;-86
2022/05/20 09:29:39;;;;;;;5.75;5.25;;;40.50;2.30;;;;;;5022695;28;20704;-87
2022/05/20 09:32:07;;;;;;;6.32;5.80;;;39.90;2.00;;;;;;5034001;28;20577;-86
2022/05/20 09:34:43;;;;;;;6.07;5.53;;;39.00;3.40;;;;;;5035339;28;20649;-86
2022/05/20 09:37:46;;;;;;;5.90;5.40;;;38.70;5.40;;;;;;5035768;28;20278;-87
2022/05/20 09:40:58;;;;;;;6.05;5.65;;;39.20;3.60;;;;;;5029950;28;20221;-87
2022/05/20 09:43:28;;;;;;;6.45;5.85;;;39.60;3.20;;;;;;5031337;28;20201;-87
2022/05/20 09:45:56;;;;;;;5.80;5.18;;;39.70;1.90;;;;;;5035911;28;20198;-85
2022/05/20 09:48:33;;;;;;;5.72;5.18;;;38.00;4.50;;;;;;5035336;28;20194;-87
2022/05/20 09:51:08;;;;;;;6.13;5.45;;;37.70;4.80;;;;;;5035386;28;20225;-85
2022/05/20 09:54:03;;;;;;;5.75;5.25;;;37.90;7.00;;;;;;5031933;28;20657;-86
2022/05/20 09:56:39;;;;;;;6.78;6.28;;;39.30;3.80;;;;;;5034269;28;20183;-88
2022/05/20 09:59:32;;;;;;;6.70;6.10;;;40.60;2.40;;;;;;5034757;28;20204;-85
2022/05/20 10:02:04;;;;;;;7.47;6.78;;;40.80;2.50;;;;;;5028518;28;20217;-87
2022/05/20 10:04:48;;;;;;;7.85;7.15;;;41.20;2.60;;;;;;5024508;28;20194;-86
2022/05/20 10:07:31;;;;;;;7.30;6.70;;;41.60;2.80;;;;;;5003746;28;20194;-86
2022/05/20 10:10:09;;;;;;;8.00;7.40;;;42.00;1.80;;;;;;5026862;28;20218;-87
2022/05/20 10:12:41;;;;;;;6.95;6.38;;;41.30;2.70;;;;;;5024840;28;21038;-85
2022/05/20 10:15:14;;;;;;;7.22;6.60;;;39.80;2.80;;;;;;5020454;28;20207;-84
2022/05/20 10:17:50;;;;;;;7.55;6.90;;;40.00;2.10;;;;;;5034567;28;20216;-84
2022/05/20 10:20:28;;;;;;;8.00;6.70;;;40.20;2.20;;;;;;5027086;28;20567;-84
2022/05/20 10:23:07;;;;;;;7.82;6.53;;;40.70;2.40;;;;;;5034867;28;20205;-87
2022/05/20 10:25:48;;;;;;;7.10;6.40;;;40.40;2.30;;;;;;5031023;28;20248;-84
2022/05/20 10:34:28;;;;;;;6.30;5.80;;;39.60;1.90;;;;;;5031989;28;20233;-84
2022/05/20 10:37:03;;;;;;;6.70;6.05;;;39.50;1.80;;;;;;5031310;28;20202;-84
2022/05/20 10:40:06;;;;;;;5.60;5.10;;;39.70;4.60;;;;;;5023278;28;20201;-84
2022/05/20 10:43:03;;;;;;;7.38;5.82;;;39.50;3.70;;;;;;5028299;28;20232;-84
2022/05/20 10:48:58;;;;;;;5.60;5.20;;;38.80;1.50;;;;;;5017808;28;21963;-84
2022/05/20 10:51:54;;;;;;;6.70;5.03;;;38.50;3.60;;;;;;5031517;28;20198;-83
2022/05/20 10:54:46;;;;;;;5.60;5.03;;;38.20;1.70;;;;;;5026192;28;20210;-84
2022/05/20 10:57:31;;;;;;;6.03;4.70;;;37.70;4.00;;;;;;5028743;28;20225;-84
2022/05/20 11:00:18;;;;;;;4.60;4.20;;;37.30;6.40;;;;;;5024260;28;20244;-85
2022/05/20 11:03:18;;;;;;;4.95;4.15;;;37.50;5.70;;;;;;5032087;28;20208;-84
2022/05/20 11:06:31;;;;;;;4.18;3.75;;;36.60;9.00;;;;;;4929516;29;20202;-88
2022/05/20 11:09:05;;;;;;;6.35;4.07;;;35.90;7.20;;;;;;4891234;29;20299;-84
2022/05/20 11:11:56;;;;;;;5.57;4.10;;;34.70;10.30;;;;;;4890878;29;20230;-83
2022/05/20 11:15:06;;;;;;;6.22;3.80;;;33.90;8.20;;;;;;4877511;29;20850;-83
2022/05/20 11:18:23;;;;;;;6.68;3.50;;;33.10;11.40;;;;;;4874588;29;20203;-84
2022/05/20 11:21:30;;;;;;;5.38;3.40;;;32.70;11.50;;;;;;4886617;29;20362;-84
2022/05/20 11:24:18;;;;;;;5.88;3.78;;;32.70;13.20;;;;;;4884584;29;20215;-84
2022/05/20 11:27:01;;;;;;;4.65;3.80;;;32.60;12.70;;;;;;4875382;29;20234;-84
2022/05/20 11:29:45;;;;;;;5.90;3.55;;;32.70;13.40;;;;;;4868516;29;20199;-84
2022/05/20 11:32:23;;;;;;;5.55;3.50;;;32.10;11.70;;;;;;4867536;29;20309;-82
2022/05/20 11:35:22;;;;;;;7.13;3.45;;;32.10;12.00;;;;;;4875829;29;20200;-82
2022/05/20 11:38:19;;;;;;;6.90;3.38;;;31.60;12.40;;;;;;4865051;29;20211;-83
2022/05/20 11:41:19;;;;;;;7.38;3.45;;;31.80;13.50;;;;;;4843286;29;20262;-82
2022/05/20 11:44:42;;;;;;;6.90;3.15;;;31.80;12.40;;;;;;4898101;29;20202;-83
2022/05/20 11:47:43;;;;;;;4.57;3.80;;;31.50;12.10;;;;;;4893154;29;20209;-83
2022/05/20 11:50:51;;;;;;;5.90;3.50;;;31.70;13.80;;;;;;4893202;29;20191;-82
2022/05/20 11:53:30;;;;;;;4.07;2.97;;;31.70;13.60;;;;;;4890631;29;20699;-83
2022/05/20 11:56:06;;;;;;;7.28;3.55;;;31.30;12.40;;;;;;4892109;29;20264;-82
2022/05/20 11:58:40;;;;;;;5.95;3.70;;;31.50;12.20;;;;;;4890794;29;20266;-82
2022/05/20 12:01:11;;;;;;;6.38;3.40;;;31.40;11.00;;;;;;4899399;29;20266;-82
2022/05/20 12:04:07;;;;;;;4.85;3.00;;;31.20;14.70;;;;;;4897017;29;20207;-82
2022/05/20 12:06:38;;;;;;;6.25;3.70;;;31.30;13.10;;;;;;4892791;29;20290;-84
2022/05/20 12:09:27;;;;;;;7.72;3.72;;;31.40;15.10;;;;;;4896486;29;20655;-82
2022/05/20 12:12:23;;;;;;;6.80;3.70;;;31.50;13.70;;;;;;4879019;29;20208;-82
2022/05/20 12:15:09;;;;;;;5.40;3.40;;;31.60;12.40;;;;;;4873815;29;20212;-83
2022/05/20 12:17:57;;;;;;;5.00;3.03;;;31.60;12.00;;;;;;4888648;29;20208;-83
2022/05/20 12:26:40;;;;;;;7.60;3.50;;;31.40;13.70;;;;;;4972816;28;20207;-84
2022/05/20 12:29:45;;;;;;;6.25;3.80;;;31.50;13.00;;;;;;4982341;28;20203;-82
2022/05/20 12:32:29;;;;;;;4.07;3.30;;;31.40;13.00;;;;;;4903537;29;20210;-87
2022/05/20 12:35:04;;;;;;;4.78;3.42;;;31.40;12.30;;;;;;4889873;29;20199;-84
2022/05/20 12:41:12;;;;;;;6.68;3.72;;;31.20;13.40;;;;;;4891151;29;20298;-84
2022/05/20 12:44:19;;;;;;;4.50;3.67;;;31.00;13.60;;;;;;4892839;29;20202;-84
2022/05/20 12:47:14;;;;;;;4.40;3.38;;;31.10;11.90;;;;;;4892010;29;20575;-85
2022/05/20 12:50:01;;;;;;;5.03;3.65;;;31.00;12.50;;;;;;4940725;29;20582;-85
2022/05/20 12:52:59;;;;;;;5.88;3.53;;;31.00;13.50;;;;;;4949894;29;20215;-82
2022/05/20 12:55:37;;;;;;;4.53;3.58;;;31.00;13.50;;;;;;4948543;29;20678;-82
2022/05/20 12:58:25;;;;;;;6.55;3.42;;;31.10;12.70;;;;;;4943220;29;20213;-82
2022/05/20 13:01:07;;;;;;;7.70;3.72;;;31.30;12.90;;;;;;4952326;29;20208;-82
2022/05/20 13:03:57;;;;;;;4.85;4.10;;;31.20;14.60;;;;;;4951530;29;20201;-82
2022/05/20 13:06:28;;;;;;;5.07;3.53;;;31.30;15.30;;;;;;4955170;29;20204;-83
2022/05/20 13:09:01;;;;;;;4.97;3.33;;;30.80;13.10;;;;;;4986307;28;20194;-83
2022/05/20 13:11:41;;;;;;;9.30;3.92;;;31.00;14.20;;;;;;5035263;28;20209;-83
2022/05/20 13:14:16;;;;;;;6.13;3.60;;;31.00;15.20;;;;;;5035393;28;20198;-82
2022/05/20 13:16:47;;;;;;;4.38;3.25;;;31.00;12.50;;;;;;5035586;28;20202;-83
2022/05/20 13:19:29;;;;;;;7.35;3.53;;;31.00;14.40;;;;;;5035203;28;20204;-81
2022/05/20 13:22:05;;;;;;;4.35;3.78;;;30.90;13.60;;;;;;5030367;28;20206;-83
2022/05/20 13:24:41;;;;;;;4.43;3.45;;;31.10;14.80;;;;;;5019353;28;20205;-83
2022/05/20 13:27:14;;;;;;;6.20;3.60;;;31.20;12.60;;;;;;5019031;28;20697;-83
2022/05/20 13:30:12;;;;;;;8.05;3.53;;;31.10;14.60;;;;;;5025897;28;20194;-87
2022/05/20 13:32:53;;;;;;;6.00;3.38;;;31.10;13.30;;;;;;5032941;28;20650;-83
2022/05/20 13:35:28;;;;;;;10.18;3.75;;;30.90;13.00;;;;;;5023956;28;20198;-82
2022/05/20 13:38:04;;;;;;;5.22;3.30;;;31.00;13.50;;;;;;5021458;28;20198;-79
2022/05/20 13:40:39;;;;;;;4.88;3.75;;;31.00;12.90;;;;;;5024605;28;20192;-81
2022/05/20 13:43:18;;;;;;;7.85;3.90;;;31.00;13.50;;;;;;5026405;28;20697;-82
2022/05/20 13:49:15;;;;;;;6.60;3.33;;;31.10;12.90;;;;;;5021911;28;20190;-78
2022/05/20 13:51:46;;;;;;;5.30;3.63;;;31.00;11.00;;;;;;5020940;28;20216;-81
2022/05/20 13:54:20;;;;;;;5.18;3.67;;;31.10;11.20;;;;;;5020454;28;20211;-79
2022/05/20 13:56:49;;;;;;;7.75;5.28;;;31.10;11.50;;;;;;5022973;28;20210;-83
2022/05/20 13:59:35;;;;;;;9.07;3.58;;;30.90;12.40;;;;;;5020003;28;20661;-81
2022/05/20 14:02:14;;;;;;;5.38;3.50;;;30.90;12.40;;;;;;5024610;28;20218;-81
2022/05/20 14:05:20;;;;;;;7.93;3.58;;;30.70;13.10;;;;;;5017460;28;20197;-81
2022/05/20 14:07:51;;;;;;;4.80;3.83;;;30.80;14.20;;;;;;5017508;28;20198;-82
2022/05/20 14:10:32;;;;;;;7.35;4.63;;;30.90;14.00;;;;;;5022488;28;20200;-82
2022/05/20 14:13:36;;;;;;;13.25;10.00;;;30.80;13.70;;;;;;5032287;28;20225;-86
2022/05/20 14:16:13;;;;;;;7.55;3.63;;;30.60;12.60;;;;;;5031030;28;20280;-80
2022/05/20 14:18:54;;;;;;;6.43;4.05;;;30.30;13.30;;;;;;5022818;28;20233;-79
2022/05/20 14:21:31;;;;;;;7.13;4.03;;;30.30;13.80;;;;;;5033088;28;20201;-81
2022/05/20 14:24:08;;;;;;;4.00;3.55;;;30.30;13.70;;;;;;5034371;28;20227;-80
2022/05/20 14:26:46;;;;;;;8.65;4.25;;;30.30;15.40;;;;;;5033128;28;20649;-80
2022/05/20 14:29:18;;;;;;;6.45;3.88;;;30.40;15.00;;;;;;5036591;28;20214;-80
2022/05/20 14:31:49;;;;;;;4.25;3.22;;;30.50;13.40;;;;;;5036971;28;20198;-80
2022/05/20 14:34:42;;;;;;;4.50;3.50;;;30.50;13.80;;;;;;5047151;28;20217;-80
2022/05/20 14:37:15;;;;;;;5.10;3.42;;;30.60;12.40;;;;;;5027609;28;20199;-81
2022/05/20 14:39:47;;;;;;;6.38;3.53;;;30.70;12.30;;;;;;5030856;28;20191;-80
2022/05/20 14:42:34;;;;;;;7.03;3.78;;;30.70;13.70;;;;;;5027337;28;20229;-81
2022/05/20 14:45:15;;;;;;;5.75;3.60;;;30.60;13.60;;;;;;5028888;28;20198;-80
2022/05/20 14:47:50;;;;;;;6.63;3.33;;;30.60;13.80;;;;;;5033944;28;20198;-81
2022/05/20 14:50:20;;;;;;;7.13;3.95;;;30.60;14.50;;;;;;5033527;28;20564;-81
2022/05/20 14:53:16;;;;;;;5.20;3.72;;;30.60;14.10;;;;;;5033308;28;20198;-80
2022/05/20 14:55:49;;;;;;;5.72;3.90;;;30.40;15.10;;;;;;5024396;28;20245;-81
2022/05/20 14:58:30;;;;;;;9.05;4.32;;;30.40;14.40;;;;;;5032321;28;20340;-81
2022/05/20 15:01:05;;;;;;;4.80;3.35;;;30.40;14.40;;;;;;5033222;28;20253;-81
2022/05/20 15:03:36;;;;;;;6.85;3.80;;;30.40;15.00;;;;;;5031612;28;20221;-81
2022/05/20 15:06:04;;;;;;;4.65;3.78;;;30.40;15.80;;;;;;5032567;28;20667;-81
2022/05/20 15:08:36;;;;;;;5.07;3.63;;;30.40;14.60;;;;;;5030264;28;20217;-81
2022/05/20 15:11:13;;;;;;;7.90;3.60;;;30.40;14.00;;;;;;5032926;28;20195;-80
2022/05/20 15:13:41;;;;;;;7.03;4.07;;;30.40;13.40;;;;;;5029047;28;20209;-80
2022/05/20 15:16:08;;;;;;;6.55;3.83;;;30.40;14.50;;;;;;5026698;28;20202;-79
2022/05/20 15:18:35;;;;;;;11.27;4.13;;;30.30;14.10;;;;;;5025440;28;20715;-82
2022/05/20 15:21:15;;;;;;;9.95;4.30;;;30.10;13.80;;;;;;5023799;28;20190;-83
2022/05/20 15:23:48;;;;;;;5.05;3.40;;;30.00;13.90;;;;;;5026834;28;20206;-82
2022/05/20 15:26:21;;;;;;;9.45;3.80;;;30.10;13.50;;;;;;5030502;28;20653;-82
2022/05/20 15:28:48;;;;;;;8.27;5.13;;;29.90;14.10;;;;;;5034457;28;20210;-82
2022/05/20 15:36:46;;;;;;;9.07;5.15;;;29.90;14.40;;;;;;5032596;28;20201;-82
2022/05/20 15:39:22;;;;;;;10.45;4.72;;;29.80;14.50;;;;;;5036719;28;20262;-82
2022/05/20 15:41:52;;;;;;;9.68;4.28;;;29.80;13.90;;;;;;5034187;28;20222;-80
2022/05/20 15:44:19;;;;;;;8.05;4.30;;;29.70;13.40;;;;;;5032141;28;20206;-82
2022/05/20 15:46:46;;;;;;;6.30;3.42;;;29.60;15.60;;;;;;5029891;28;20198;-84
2022/05/20 15:49:13;;;;;;;6.65;3.90;;;29.60;14.60;;;;;;5032943;28;20205;-82
2022/05/20 15:51:40;;;;;;;6.60;3.70;;;29.60;14.00;;;;;;5036374;28;20268;-83
2022/05/20 15:54:12;;;;;;;9.68;4.00;;;29.70;15.20;;;;;;5039040;28;20532;-81
2022/05/20 15:56:40;;;;;;;8.00;3.90;;;29.50;14.20;;;;;;5036282;28;20241;-82
2022/05/20 15:59:10;;;;;;;5.07;3.72;;;29.30;16.30;;;;;;5029950;28;20552;-82
2022/05/20 16:01:46;;;;;;;8.23;3.88;;;29.40;16.30;;;;;;5031892;28;20765;-82
2022/05/20 16:04:28;;;;;;;5.22;3.70;;;29.50;16.40;;;;;;5034801;28;20209;-81
2022/05/20 16:06:57;;;;;;;8.27;4.03;;;29.50;14.90;;;;;;5027866;28;20191;-83
2022/05/20 16:09:34;;;;;;;8.10;4.60;;;29.50;15.20;;;;;;5031108;28;20664;-81
2022/05/20 16:12:07;;;;;;;8.50;3.63;;;29.30;16.30;;;;;;5030975;28;20207;-81
2022/05/20 16:14:52;;;;;;;5.95;3.67;;;29.30;16.30;;;;;;5023986;28;20201;-82
2022/05/20 16:17:52;;;;;;;6.68;3.78;;;29.30;16.30;;;;;;5026123;28;20198;-82
2022/05/20 16:20:19;;;;;;;9.18;3.78;;;29.20;15.60;;;;;;5027076;28;20299;-82
2022/05/20 16:22:48;;;;;;;6.57;3.83;;;29.20;16.20;;;;;;5024485;28;20210;-82
2022/05/20 16:25:17;;;;;;;5.53;3.80;;;29.20;16.20;;;;;;5028344;28;20734;-81
2022/05/20 16:27:49;;;;;;;7.25;4.30;;;29.10;16.20;;;;;;5033676;28;20191;-84
2022/05/20 16:30:18;;;;;;;7.90;4.22;;;29.00;17.00;;;;;;5036846;28;20284;-83
2022/05/20 16:32:52;;;;;;;8.82;4.20;;;29.00;16.10;;;;;;5037567;28;20216;-86
2022/05/20 16:35:28;;;;;;;4.57;4.15;;;29.00;16.20;;;;;;5024693;28;20301;-85
2022/05/20 16:38:05;;;;;;;7.90;4.63;;;28.90;17.00;;;;;;5027704;28;20194;-84
2022/05/20 16:40:52;;;;;;;11.90;4.38;;;28.90;16.10;;;;;;5036492;28;20295;-88
2022/05/20 16:43:24;;;;;;;7.63;4.43;;;28.80;16.00;;;;;;5035952;28;20685;-86
2022/05/20 16:46:19;;;;;;;5.40;4.30;;;28.80;16.00;;;;;;5018968;28;20542;-87
2022/05/20 16:48:55;;;;;;;9.57;4.25;;;28.70;16.00;;;;;;5008632;28;20249;-85
2022/05/20 16:51:35;;;;;;;5.90;4.25;;;28.90;16.10;;;;;;5031662;28;20298;-85
2022/05/20 16:54:22;;;;;;;10.45;3.70;;;29.10;16.20;;;;;;5032837;28;20194;-85
2022/05/20 17:02:44;;;;;;;11.38;3.60;;;29.10;16.20;;;;;;5026571;28;20230;-80
2022/05/20 17:05:16;;;;;;;9.10;4.10;;;29.00;16.10;;;;;;5037721;28;20198;-82
2022/05/20 17:07:58;;;;;;;6.78;3.83;;;29.00;16.10;;;;;;5029010;28;20650;-80
2022/05/20 17:10:41;;;;;;;8.73;4.05;;;28.90;16.10;;;;;;5028349;28;20801;-80
2022/05/20 17:13:34;;;;;;;7.30;4.07;;;29.10;16.20;;;;;;5028609;28;20611;-80
2022/05/20 17:16:11;;;;;;;6.80;3.80;;;29.10;16.20;;;;;;5029861;28;20221;-80
2022/05/20 17:18:46;;;;;;;7.55;3.97;;;29.00;16.10;;;;;;5029546;28;20282;-80
2022/05/20 17:24:23;;;;;;;7.93;4.20;;;28.80;16.90;;;;;;5029840;28;20301;-80
2022/05/20 17:27:17;;;;;;;6.75;3.88;;;28.50;16.90;;;;;;5027437;28;20202;-80
2022/05/20 17:29:47;;;;;;;6.53;3.85;;;28.30;17.30;;;;;;5033587;28;20641;-80
2022/05/20 17:32:18;;;;;;;5.30;3.90;;;28.10;17.90;;;;;;5029128;28;20205;-81
2022/05/20 17:34:52;;;;;;;33.30;29.92;;;27.90;17.90;;;;;;5031870;28;20194;-80
2022/05/20 17:37:35;;;;;;;6.65;4.68;;;27.80;18.80;;;;;;5023239;28;20197;-80
2022/05/20 17:40:02;;;;;;;6.90;4.20;;;27.70;19.30;;;;;;5021524;28;20214;-80
2022/05/20 17:42:29;;;;;;;8.05;4.07;;;27.60;19.60;;;;;;5023823;28;20218;-81
2022/05/20 17:44:58;;;;;;;10.30;4.30;;;27.50;19.80;;;;;;5022345;28;20199;-81
2022/05/20 17:47:30;;;;;;;9.43;5.03;;;27.40;20.00;;;;;;5020154;28;20642;-81
2022/05/20 17:49:58;;;;;;;6.80;5.07;;;27.30;20.40;;;;;;5014288;28;20210;-81
2022/05/20 17:52:26;;;;;;;6.07;4.45;;;27.10;21.50;;;;;;5022210;28;20206;-81
2022/05/20 17:55:16;;;;;;;5.22;3.80;;;27.10;22.00;;;;;;5028107;28;20606;-81
2022/05/20 17:57:43;;;;;;;11.27;5.50;;;27.00;22.20;;;;;;5033984;28;20233;-81
2022/05/20 18:00:24;;;;;;;6.93;4.55;;;26.90;23.40;;;;;;5032691;28;20199;-81
2022/05/20 18:02:53;;;;;;;6.65;4.22;;;26.80;24.10;;;;;;5025133;28;20241;-81
2022/05/20 18:05:21;;;;;;;8.27;4.80;;;26.80;24.10;;;;;;5028272;28;20202;-82
2022/05/20 18:07:48;;;;;;;5.75;4.93;;;26.70;24.50;;;;;;5034002;28;20202;-81
2022/05/20 18:10:16;;;;;;;5.97;4.72;;;26.70;25.20;;;;;;5027740;28;20198;-81
2022/05/20 18:12:46;;;;;;;11.80;5.25;;;26.60;25.40;;;;;;5030759;28;20198;-82
2022/05/20 18:15:16;;;;;;;7.53;4.85;;;26.50;26.40;;;;;;5032723;28;20202;-81
2022/05/20 18:18:21;;;;;;;6.63;4.55;;;26.50;26.50;;;;;;5032286;28;20198;-81
2022/05/20 18:21:04;;;;;;;9.52;5.05;;;26.40;26.10;;;;;;5023633;28;20194;-81
2022/05/20 18:23:34;;;;;;;8.93;5.03;;;26.40;25.30;;;;;;5023883;28;20226;-83
2022/05/20 18:26:04;;;;;;;7.45;5.00;;;26.40;24.80;;;;;;5023442;28;20206;-83
2022/05/20 18:28:37;;;;;;;7.68;4.85;;;26.70;21.60;;;;;;5024837;28;20190;-83
2022/05/20 18:31:40;;;;;;;8.02;4.97;;;26.90;20.30;;;;;;5027085;28;20220;-84
2022/05/20 18:39:17;;;;;;;8.75;4.57;;;27.00;19.80;;;;;;5029115;28;20205;-83
2022/05/20 18:39:50;;;;;;;8.85;4.50;;;27.30;19.20;;;;;;5027762;28;20614;-83
2022/05/20 18:42:23;;;;;;;10.30;4.65;;;27.30;19.90;;;;;;5028517;28;20225;-85
2022/05/20 18:44:58;;;;;;;6.45;3.97;;;27.30;20.00;;;;;;5032136;28;20210;-86
2022/05/20 18:47:58;;;;;;;5.80;4.35;;;27.20;20.00;;;;;;5027614;28;20194;-85
2022/05/20 18:50:28;;;;;;;9.95;4.20;;;27.10;19.70;;;;;;5030027;28;20205;-84
2022/05/20 18:52:57;;;;;;;11.15;4.00;;;27.10;19.20;;;;;;5031211;28;20208;-86
2022/05/20 18:55:25;;;;;;;7.45;3.67;;;27.10;19.30;;;;;;5031590;28;20194;-88
2022/05/20 18:57:52;;;;;;;6.35;4.03;;;27.00;19.60;;;;;;5032702;28;20209;-84
2022/05/20 19:00:25;;;;;;;8.05;3.70;;;26.90;19.90;;;;;;5028790;28;20650;-84
2022/05/20 19:03:43;;;;;;;6.97;4.07;;;26.80;20.00;;;;;;5031276;28;20198;-84
2022/05/20 19:05:58;;;;;;;8.90;4.10;;;26.80;20.10;;;;;;5030543;28;21090;-84
2022/05/20 19:08:26;;;;;;;12.20;4.30;;;26.70;21.70;;;;;;5029676;28;20221;-84
2022/05/20 19:10:58;;;;;;;9.38;3.70;;;26.60;20.60;;;;;;5033892;28;20191;-84
2022/05/20 19:13:28;;;;;;;7.50;4.03;;;26.60;20.80;;;;;;5034436;28;20209;-84
2022/05/20 19:16:16;;;;;;;9.98;4.32;;;26.60;21.00;;;;;;5033571;28;20696;-84
2022/05/20 19:18:46;;;;;;;7.50;4.07;;;26.50;20.90;;;;;;5034422;28;20198;-84
2022/05/20 19:21:23;;;;;;;8.02;4.22;;;26.50;21.00;;;;;;5027785;28;20213;-84
2022/05/20 19:23:54;;;;;;;7.70;4.18;;;26.50;21.20;;;;;;5029743;28;20225;-86
2022/05/20 19:29:58;;;;;;;5.95;3.85;;;26.40;21.90;;;;;;5035939;28;20198;-83
2022/05/20 19:32:34;;;;;;;7.75;4.13;;;26.30;21.60;;;;;;5035251;28;20664;-83
2022/05/20 19:35:01;;;;;;;6.20;4.30;;;26.30;22.20;;;;;;5037476;28;20202;-83
2022/05/20 19:37:31;;;;;;;12.57;4.47;;;26.20;24.20;;;;;;5037740;28;20203;-83
2022/05/20 19:40:00;;;;;;;8.63;4.35;;;26.00;27.60;;;;;;5035442;28;20191;-83
2022/05/20 19:42:28;;;;;;;10.38;4.47;;;25.70;31.00;;;;;;5033495;28;20223;-83
2022/05/20 19:44:56;;;;;;;8.63;4.60;;;25.50;33.50;;;;;;5039551;28;20215;-85
2022/05/20 19:47:52;;;;;;;11.82;4.60;;;25.10;38.80;;;;;;5037413;28;20187;-86
2022/05/20 19:50:19;;;;;;;8.90;4.25;;;24.70;43.10;;;;;;5035759;28;20205;-86
2022/05/20 19:52:45;;;;;;;8.85;5.07;;;24.50;45.30;;;;;;5035928;28;20187;-85
2022/05/20 19:55:14;;;;;;;9.63;5.70;;;24.30;45.60;;;;;;5032596;28;20202;-86
2022/05/20 20:00:43;;;;;;;7.13;4.80;;;24.20;46.80;;;;;;5031014;28;20237;-86
2022/05/20 20:03:26;;;;;;;8.77;4.68;;;24.00;47.40;;;;;;5035229;28;20202;-85
2022/05/20 20:05:54;;;;;;;11.27;5.00;;;24.00;49.10;;;;;;5034036;28;20202;-85
2022/05/20 20:08:22;;;;;;;15.07;9.20;;;23.90;51.20;;;;;;5036978;28;20207;-86
2022/05/20 20:14:52;;;;;;;8.70;5.15;;;23.80;52.90;;;;;;5043436;28;20335;-85
2022/05/20 20:17:41;;;;;;;7.90;4.40;;;23.60;52.00;;;;;;5042852;28;20210;-86
2022/05/20 20:20:14;;;;;;;9.30;4.80;;;23.60;54.40;;;;;;5039779;28;20206;-87
2022/05/20 20:26:04;;;;;;;7.20;4.53;;;23.50;51.90;;;;;;5048070;28;20672;-85
2022/05/20 20:29:03;;;;;;;8.27;4.45;;;23.40;50.80;;;;;;5044259;28;20213;-85
2022/05/20 20:31:51;;;;;;;9.77;4.75;;;23.30;48.30;;;;;;4995494;28;20207;-85
2022/05/20 20:34:30;;;;;;;7.60;4.45;;;23.30;48.30;;;;;;5044146;28;20199;-85
2022/05/20 20:37:15;;;;;;;;;;;;;;;;;;;;;
2022/05/20 20:39:47;;;;;;;7.68;4.18;;;23.20;48.90;;;;;;5039859;28;20287;-85
2022/05/20 20:42:16;;;;;;;7.20;4.57;;;23.20;48.40;;;;;;5042329;28;20219;-85
2022/05/20 20:45:31;;;;;;;9.95;4.38;;;23.20;47.70;;;;;;5045769;28;20245;-86
2022/05/20 20:51:54;;;;;;;;;;;;;;;;;;;;;
2022/05/20 20:57:33;;;;;;;7.22;4.32;;;23.10;47.90;;;;;;5035338;28;20226;-86
2022/05/20 21:00:09;;;;;;;9.23;4.57;;;23.20;46.80;;;;;;5042784;28;20218;-85
2022/05/20 21:03:13;;;;;;;11.85;4.43;;;23.20;46.10;;;;;;5046825;28;20225;-86
2022/05/20 21:05:45;;;;;;;9.00;4.20;;;23.30;45.80;;;;;;5032959;28;20203;-85
2022/05/20 21:08:43;;;;;;;8.90;4.45;;;23.30;45.10;;;;;;5043454;28;20206;-86
2022/05/20 21:11:26;;;;;;;10.55;4.50;;;23.40;44.60;;;;;;5038413;28;20207;-85
2022/05/20 21:14:14;;;;;;;13.68;5.10;;;23.40;45.90;;;;;;5045075;28;20205;-85
2022/05/20 21:17:24;;;;;;;9.35;5.07;;;23.40;45.30;;;;;;5038712;28;20286;-87
2022/05/20 21:20:21;;;;;;;13.48;4.60;;;23.30;44.30;;;;;;5043510;28;20226;-86
2022/05/20 21:23:10;;;;;;;13.25;4.30;;;23.40;41.60;;;;;;5047522;28;20218;-86
2022/05/20 21:25:45;;;;;;;8.05;4.38;;;23.40;40.30;;;;;;5033231;28;20233;-85
2022/05/20 21:28:18;;;;;;;8.10;3.92;;;23.50;39.00;;;;;;5041278;28;20199;-85
2022/05/20 21:34:14;;;;;;;7.10;4.30;;;23.50;38.80;;;;;;5042326;28;20203;-85
2022/05/20 21:36:55;;;;;;;9.32;4.47;;;23.50;38.70;;;;;;5039177;28;20199;-86
2022/05/20 21:39:36;;;;;;;12.73;4.28;;;23.40;41.80;;;;;;5041982;28;20206;-85
2022/05/20 21:45:50;;;;;;;9.73;4.65;;;23.30;40.40;;;;;;5038920;28;20269;-85
2022/05/20 21:48:29;;;;;;;11.07;4.70;;;23.20;34.70;;;;;;5047331;28;20274;-85
2022/05/20 21:51:11;;;;;;;12.23;4.13;;;23.30;37.70;;;;;;5048768;28;20210;-86
2022/05/20 21:53:42;;;;;;;11.77;4.32;;;23.30;34.80;;;;;;5044545;28;20207;-86
2022/05/20 21:56:35;;;;;;;;;;;;;;;;;;;;;
2022/05/20 22:09:10;;;;;;;8.88;4.38;;;23.70;30.60;;;;;;4912104;29;20210;-85